Time;durP1;ratioP1;P1;durP2;ratioP2;P2;SDS_P1;SDS_P2;PMS_P1;PMS_P2;Temp;Humidity;BMP_temperature;BMP_pressure;BME280_temperature;BME280_humidity;BME280_pressure;Samples;Min_cycle;Max_cycle;Signal;HPM_P1;HPM_P2
2022/04/20 00:00:56;;;;;;;31.77;22.40;;;;;;;6.34;100.00;99504.13;1703397;84;21245;-77
2022/04/20 00:04:02;;;;;;;37.53;23.62;;;;;;;6.34;100.00;99509.55;1704147;84;21182;-77
2022/04/20 00:07:10;;;;;;;22.55;16.75;;;;;;;6.36;100.00;99502.62;1703200;83;21249;-78
2022/04/20 00:10:15;;;;;;;19.23;12.98;;;;;;;6.36;100.00;99502.11;1729395;83;21174;-77
2022/04/20 00:13:21;;;;;;;17.42;13.15;;;;;;;6.34;100.00;99505.48;1728185;83;21209;-75
2022/04/20 00:16:27;;;;;;;19.10;13.53;;;;;;;6.34;100.00;99499.20;1728507;83;21209;-78
2022/04/20 00:19:33;;;;;;;23.83;12.40;;;;;;;6.34;100.00;99504.63;1729732;83;21165;-77
2022/04/20 00:22:39;;;;;;;19.70;12.95;;;;;;;6.33;100.00;99505.14;1728960;83;21740;-77
2022/04/20 00:25:45;;;;;;;15.93;12.78;;;;;;;6.31;100.00;99516.70;1729444;83;21212;-77
2022/04/20 00:28:52;;;;;;;18.85;12.95;;;;;;;6.30;100.00;99514.98;1729485;83;21154;-78
2022/04/20 00:31:58;;;;;;;20.40;12.58;;;;;;;6.28;100.00;99513.47;1728381;83;21178;-78
2022/04/20 00:35:05;;;;;;;15.98;12.00;;;;;;;6.26;100.00;99506.01;1727926;82;21166;-78
2022/04/20 00:38:12;;;;;;;21.97;14.47;;;;;;;6.27;100.00;99507.70;1728751;83;21551;-78
2022/04/20 00:41:19;;;;;;;20.37;13.38;;;;;;;6.25;100.00;99517.35;1728338;83;21176;-77
2022/04/20 00:44:25;;;;;;;18.35;12.55;;;;;;;6.26;100.00;99516.36;1728410;83;21247;-78
2022/04/20 00:47:32;;;;;;;21.82;13.30;;;;;;;6.25;100.00;99529.58;1726197;83;21215;-77
2022/04/20 00:50:40;;;;;;;21.40;13.90;;;;;;;6.25;100.00;99528.22;1728501;83;21145;-78
2022/04/20 00:53:47;;;;;;;17.90;12.58;;;;;;;6.26;100.00;99515.52;1729159;83;21236;-77
2022/04/20 00:56:54;;;;;;;19.20;12.82;;;;;;;6.25;100.00;99511.08;1730972;83;21231;-76
2022/04/20 01:00:02;;;;;;;19.10;13.03;;;;;;;6.23;100.00;99513.97;1730863;83;21168;-77
2022/04/20 01:03:13;;;;;;;20.25;14.85;;;;;;;6.22;100.00;99502.77;1730916;83;21187;-77
2022/04/20 01:06:33;;;;;;;20.50;12.98;;;;;;;6.23;100.00;99500.91;1679557;83;21188;-77
2022/04/20 01:09:40;;;;;;;19.40;11.97;;;;;;;6.24;100.00;99499.36;1731193;82;21176;-77
2022/04/20 01:12:52;;;;;;;20.57;13.32;;;;;;;6.25;100.00;99495.63;1746670;80;21738;-78
2022/04/20 01:16:02;;;;;;;22.87;13.55;;;;;;;6.24;100.00;99488.50;1772153;81;21232;-77
2022/04/20 01:19:10;;;;;;;21.80;13.50;;;;;;;6.25;100.00;99487.99;1771773;81;21761;-81
2022/04/20 01:22:20;;;;;;;19.37;12.82;;;;;;;6.23;100.00;99478.66;1769425;79;21738;-78
2022/04/20 01:25:45;;;;;;;20.20;13.10;;;;;;;6.21;100.00;99486.14;1770621;81;21161;-78
2022/04/20 01:29:10;;;;;;;18.55;13.00;;;;;;;6.20;100.00;99495.28;1772169;81;21137;-80
2022/04/20 01:32:24;;;;;;;21.05;12.88;;;;;;;6.18;100.00;99489.19;1770660;79;21193;-81
2022/04/20 01:35:27;;;;;;;20.85;14.40;;;;;;;6.19;100.00;99482.73;1772247;81;21183;-81
2022/04/20 01:38:20;;;;;;;20.32;14.25;;;;;;;6.17;100.00;99477.98;1771870;79;21189;-81
2022/04/20 01:41:09;;;;;;;22.50;14.23;;;;;;;6.16;100.00;99474.91;1772051;81;21716;-81
2022/04/20 01:44:15;;;;;;;25.27;16.73;;;;;;;6.15;100.00;99477.30;1771026;81;21170;-81
2022/04/20 01:47:26;;;;;;;28.35;17.27;;;;;;;6.13;100.00;99476.63;1772127;79;21181;-80
2022/04/20 01:50:32;;;;;;;25.55;16.12;;;;;;;6.13;100.00;99467.13;1770479;80;21750;-81
2022/04/20 01:53:40;;;;;;;22.02;14.35;;;;;;;6.12;100.00;99464.07;1771501;79;21181;-81
2022/04/20 01:57:03;;;;;;;27.35;17.05;;;;;;;6.11;100.00;99465.91;1772086;79;21237;-81
2022/04/20 02:00:16;;;;;;;27.73;16.75;;;;;;;6.09;100.00;99461.68;1762394;81;21199;-81
2022/04/20 02:03:23;;;;;;;;;;;;;;;6.09;100.00;99461.68;1772340;79;21728;-81
2022/04/20 02:06:31;;;;;;;29.42;17.02;;;;;;;6.07;100.00;99458.27;1772004;79;20189;-82
2022/04/20 02:09:39;;;;;;;32.45;17.95;;;;;;;6.06;100.00;99467.44;1773931;80;21247;-81
2022/04/20 02:12:46;;;;;;;27.58;17.50;;;;;;;6.05;100.00;99461.67;1784322;79;21234;-81
2022/04/20 02:15:50;;;;;;;25.10;16.80;;;;;;;6.04;100.00;99464.90;1785774;80;21168;-81
2022/04/20 02:18:56;;;;;;;35.40;20.00;;;;;;;6.03;100.00;99472.71;1785734;80;21211;-80
2022/04/20 02:22:06;;;;;;;34.48;20.48;;;;;;;6.03;100.00;99483.57;1784310;79;21734;-81
2022/04/20 02:25:11;;;;;;;51.73;25.45;;;;;;;6.04;100.00;99484.41;1784399;80;21172;-81
2022/04/20 02:28:18;;;;;;;41.53;22.15;;;;;;;6.05;100.00;99488.31;1785702;79;21180;-81
2022/04/20 02:31:23;;;;;;;37.70;19.87;;;;;;;6.09;100.00;99499.70;1784191;79;21970;-80
2022/04/20 02:34:30;;;;;;;35.23;19.57;;;;;;;6.09;100.00;99511.40;1784539;80;21183;-81
2022/04/20 02:37:37;;;;;;;37.00;21.62;;;;;;;6.11;100.00;99520.21;1784357;79;21173;-81
2022/04/20 02:40:43;;;;;;;33.80;18.52;;;;;;;6.13;100.00;99535.00;1785855;80;21138;-80
2022/04/20 02:43:49;;;;;;;35.10;20.23;;;;;;;6.13;100.00;99534.49;1785716;80;21222;-80
2022/04/20 02:46:55;;;;;;;35.40;20.37;;;;;;;6.12;100.00;99520.58;1785462;79;21184;-81
2022/04/20 02:50:01;;;;;;;38.10;21.12;;;;;;;6.14;100.00;99516.33;1785595;80;21192;-80
2022/04/20 02:53:07;;;;;;;38.13;20.77;;;;;;;6.14;100.00;99514.97;1784182;79;21168;-80
2022/04/20 02:56:13;;;;;;;45.83;21.85;;;;;;;6.14;100.00;99522.61;1784212;80;21810;-80
2022/04/20 02:59:19;;;;;;;43.38;22.50;;;;;;;6.13;100.00;99533.64;1785637;80;21157;-81
2022/04/20 03:02:19;;;;;;;44.18;21.62;;;;;;;6.17;100.00;99530.09;1785137;79;21223;-81
2022/04/20 03:05:25;;;;;;;30.48;16.73;;;;;;;6.19;100.00;99538.40;1784530;80;21188;-81
2022/04/20 03:08:32;;;;;;;42.75;20.95;;;;;;;6.19;100.00;99530.77;1784615;79;21149;-81
2022/04/20 03:11:40;;;;;;;33.40;19.67;;;;;;;6.19;100.00;99521.26;1784371;79;21211;-81
2022/04/20 03:14:45;;;;;;;31.97;17.90;;;;;;;6.18;100.00;99512.78;1785232;80;21164;-81
2022/04/20 03:17:51;;;;;;;34.53;19.20;;;;;;;6.11;100.00;99508.51;1784281;79;21193;-80
2022/04/20 03:20:58;;;;;;;35.00;19.52;;;;;;;6.07;100.00;99518.00;1785815;80;21681;-81
2022/04/20 03:24:00;;;;;;;39.88;20.35;;;;;;;6.06;100.00;99520.37;1784551;80;21737;-81
2022/04/20 03:27:12;;;;;;;31.02;19.73;;;;;;;6.05;100.00;99517.33;1787345;79;21227;-81
2022/04/20 03:30:15;;;;;;;34.25;19.95;;;;;;;6.05;100.00;99525.47;1786291;80;21193;-80
2022/04/20 03:33:21;;;;;;;32.53;19.07;;;;;;;6.04;100.00;99536.00;1786133;79;21220;-81
2022/04/20 03:36:27;;;;;;;36.13;20.37;;;;;;;6.03;100.00;99534.30;1784427;79;21165;-80
2022/04/20 03:39:34;;;;;;;39.42;20.57;;;;;;;6.02;100.00;99533.45;1785003;80;21176;-80
2022/04/20 03:42:39;;;;;;;35.98;19.05;;;;;;;6.03;100.00;99535.16;1785023;79;21738;-81
2022/04/20 03:45:46;;;;;;;109.55;40.92;;;;;;;6.04;100.00;99546.86;1784565;80;21192;-81
2022/04/20 03:48:53;;;;;;;87.20;37.00;;;;;;;6.04;100.00;99556.36;1785766;80;21141;-81
2022/04/20 03:52:01;;;;;;;78.47;35.90;;;;;;;6.01;100.00;99552.09;1784259;79;21176;-81
2022/04/20 03:55:08;;;;;;;71.12;33.58;;;;;;;6.02;100.00;99545.67;1773026;81;21168;-81
2022/04/20 03:58:14;;;;;;;75.83;32.80;;;;;;;6.06;100.00;99539.38;1773392;81;21223;-81
2022/04/20 04:01:20;;;;;;;59.15;28.47;;;;;;;6.10;100.00;99540.75;1774605;81;21152;-81
2022/04/20 04:04:26;;;;;;;53.83;28.27;;;;;;;6.16;100.00;99540.08;1773004;81;21184;-81
2022/04/20 04:07:37;;;;;;;52.58;26.33;;;;;;;6.22;100.00;99544.86;1776597;80;21193;-81
2022/04/20 04:10:43;;;;;;;46.40;25.87;;;;;;;6.35;100.00;99541.64;1767797;81;21239;-81
2022/04/20 04:13:50;;;;;;;39.75;22.87;;;;;;;6.53;100.00;99536.05;1766543;81;21219;-81
2022/04/20 04:16:57;;;;;;;47.67;25.77;;;;;;;6.69;100.00;99548.30;1767782;81;21737;-80
2022/04/20 04:20:02;;;;;;;45.43;23.65;;;;;;;6.85;100.00;99548.28;1767869;81;21148;-81
2022/04/20 04:23:10;;;;;;;42.58;24.57;;;;;;;7.01;100.00;99560.16;1766914;81;21239;-81
2022/04/20 04:26:24;;;;;;;37.15;22.05;;;;;;;7.15;100.00;99555.38;1766374;81;21219;-81
2022/04/20 04:29:31;;;;;;;40.65;23.83;;;;;;;7.27;100.00;99554.00;1767922;81;21716;-81
2022/04/20 04:32:38;;;;;;;38.10;22.07;;;;;;;7.40;100.00;99558.40;1767285;81;21195;-81
2022/04/20 04:35:45;;;;;;;37.70;20.25;;;;;;;7.52;100.00;99567.54;1767639;81;21207;-81
2022/04/20 04:38:52;;;;;;;32.98;19.42;;;;;;;7.58;100.00;99576.39;1767995;81;21199;-78
2022/04/20 04:42:02;;;;;;;30.97;18.67;;;;;;;7.66;100.00;99588.07;1766373;81;21199;-81
2022/04/20 04:48:42;;;;;;;33.90;19.30;;;;;;;7.74;100.00;99590.45;1766548;81;21188;-81
2022/04/20 04:51:49;;;;;;;37.63;20.90;;;;;;;7.78;100.00;99589.92;1781538;80;21212;-81
2022/04/20 04:54:55;;;;;;;32.63;18.67;;;;;;;7.84;100.00;99608.27;1784329;80;21165;-80
2022/04/20 04:58:01;;;;;;;34.23;19.20;;;;;;;7.88;100.00;99600.60;1778064;80;21145;-80
2022/04/20 05:01:07;;;;;;;27.60;16.75;;;;;;;7.91;100.00;99607.06;1783586;80;21192;-81
2022/04/20 05:04:14;;;;;;;30.72;18.05;;;;;;;7.98;100.00;99608.56;1745732;82;21172;-81
2022/04/20 05:07:22;;;;;;;30.68;17.90;;;;;;;8.02;100.00;99609.39;1716337;83;21200;-81
2022/04/20 05:10:23;;;;;;;34.95;18.55;;;;;;;8.03;100.00;99606.15;1730082;83;21179;-78
2022/04/20 05:13:29;;;;;;;30.57;18.67;;;;;;;8.03;100.00;99612.44;1710668;83;21208;-77
2022/04/20 05:16:36;;;;;;;27.52;16.52;;;;;;;8.03;100.00;99605.63;1769643;81;21166;-78
2022/04/20 05:19:43;;;;;;;33.23;18.60;;;;;;;8.07;100.00;99608.86;1770016;81;21173;-77
2022/04/20 05:22:47;;;;;;;30.95;18.50;;;;;;;8.09;100.00;99606.31;1756662;81;21221;-77
2022/04/20 05:25:54;;;;;;;30.90;17.77;;;;;;;8.12;100.00;99601.00;1764439;81;21224;-78
2022/04/20 05:29:04;;;;;;;28.12;17.20;;;;;;;8.14;100.00;99604.41;1746590;81;21522;-77
2022/04/20 05:32:24;;;;;;;28.75;17.50;;;;;;;8.15;100.00;99599.30;1762611;79;21193;-77
2022/04/20 05:35:33;;;;;;;32.15;17.92;;;;;;;8.16;100.00;99596.38;1763817;81;21170;-77
2022/04/20 05:42:04;;;;;;;32.90;17.98;;;;;;;8.25;100.00;99586.30;1760817;79;21161;-77
2022/04/20 05:45:12;;;;;;;29.77;16.37;;;;;;;8.32;100.00;99595.44;1757569;81;21157;-77
2022/04/20 05:48:30;;;;;;;25.32;15.18;;;;;;;8.40;100.00;99594.58;1737410;81;21719;-77
2022/04/20 05:51:38;;;;;;;22.05;14.55;;;;;;;8.41;100.00;99590.30;1761418;81;21216;-77
2022/04/20 05:54:44;;;;;;;20.92;13.80;;;;;;;8.45;100.00;99589.44;1769804;81;21150;-77
2022/04/20 05:57:49;;;;;;;27.95;16.80;;;;;;;8.49;100.00;99588.57;1756901;81;21762;-78
2022/04/20 06:00:56;;;;;;;28.35;16.30;;;;;;;8.53;100.00;99583.94;1767542;80;21209;-77
2022/04/20 06:04:07;;;;;;;21.95;14.73;;;;;;;8.58;100.00;99586.97;1751428;81;21509;-77
2022/04/20 06:07:33;;;;;;;26.90;15.40;;;;;;;8.62;100.00;99592.39;1768263;80;21169;-77
2022/04/20 06:10:48;;;;;;;26.73;15.45;;;;;;;8.67;100.00;99595.95;1768029;80;21505;-77
2022/04/20 06:13:55;;;;;;;23.87;15.48;;;;;;;8.69;100.00;99597.96;1769134;81;21158;-81
2022/04/20 06:17:01;;;;;;;25.90;15.98;;;;;;;8.70;100.00;99602.38;1754867;81;21849;-81
2022/04/20 06:19:55;;;;;;;24.30;14.60;;;;;;;8.69;100.00;99608.34;1768814;81;21715;-81
2022/04/20 06:23:22;;;;;;;21.70;14.33;;;;;;;8.69;100.00;99609.71;1769155;80;21232;-81
2022/04/20 06:26:38;;;;;;;26.00;15.75;;;;;;;8.67;100.00;99610.42;1692817;80;21179;-81
2022/04/20 06:30:01;;;;;;;24.18;14.78;;;;;;;8.67;100.00;99625.41;1764390;81;21200;-82
2022/04/20 06:33:26;;;;;;;23.42;15.35;;;;;;;8.71;100.00;99631.36;1761706;81;21217;-80
2022/04/20 06:36:36;;;;;;;20.32;12.75;;;;;;;8.69;100.00;99630.67;1762364;81;21162;-80
2022/04/20 06:39:51;;;;;;;23.57;15.18;;;;;;;8.68;100.00;99633.08;1746454;80;21239;-80
2022/04/20 06:43:02;;;;;;;24.20;14.80;;;;;;;8.67;100.00;99631.39;1751798;81;21157;-81
2022/04/20 06:46:13;;;;;;;25.68;16.80;;;;;;;8.63;100.00;99634.14;1734633;80;21734;-82
2022/04/20 06:49:27;;;;;;;26.55;19.55;;;;;;;8.57;100.00;99634.34;1753608;81;21782;-82
2022/04/20 06:59:31;;;;;;;24.10;16.67;;;;;;;8.60;100.00;99611.31;1758609;81;21699;-82
2022/04/20 07:02:41;;;;;;;22.65;13.75;;;;;;;8.66;100.00;99606.52;1748482;80;21178;-82
2022/04/20 07:05:49;;;;;;;29.07;16.97;;;;;;;8.70;100.00;99604.62;1769803;81;21182;-82
2022/04/20 07:09:00;;;;;;;30.32;18.23;;;;;;;8.71;100.00;99600.01;1771263;81;21190;-82
2022/04/20 07:12:11;;;;;;;31.12;16.02;;;;;;;8.78;100.00;99592.78;1767739;81;21711;-82
2022/04/20 07:15:17;;;;;;;31.50;16.57;;;;;;;8.83;100.00;99586.78;1756079;81;21199;-82
2022/04/20 07:18:23;;;;;;;37.65;19.82;;;;;;;8.83;100.00;99588.98;1728356;83;21757;-81
2022/04/20 07:21:43;;;;;;;33.70;17.80;;;;;;;8.81;100.00;99582.88;1718717;82;21844;-82
2022/04/20 07:24:53;;;;;;;39.53;19.82;;;;;;;8.81;100.00;99584.77;1710188;84;21165;-81
2022/04/20 07:28:09;;;;;;;32.93;16.75;;;;;;;8.77;100.00;99591.09;1682575;83;21216;-82
2022/04/20 07:31:27;;;;;;;34.23;18.27;;;;;;;8.74;100.00;99592.81;1723037;82;21200;-81
2022/04/20 07:34:34;;;;;;;26.85;16.70;;;;;;;8.69;100.00;99599.33;1724792;82;21256;-81
2022/04/20 07:37:51;;;;;;;34.08;19.32;;;;;;;8.64;100.00;99604.47;1715180;82;21760;-82
2022/04/20 07:41:14;;;;;;;39.18;19.07;;;;;;;8.61;100.00;99611.64;1723497;82;21200;-82
2022/04/20 07:44:23;;;;;;;32.53;18.37;;;;;;;8.58;100.00;99614.23;1721114;82;21204;-82
2022/04/20 07:47:31;;;;;;;33.78;19.20;;;;;;;8.53;100.00;99616.65;1725706;82;21788;-79
2022/04/20 07:51:12;;;;;;;34.18;18.00;;;;;;;8.47;100.00;99619.23;1692898;85;21681;-80
2022/04/20 07:54:18;;;;;;;33.98;20.15;;;;;;;8.41;100.00;99613.98;1708173;82;21176;-80
2022/04/20 07:57:25;;;;;;;36.90;21.97;;;;;;;8.34;100.00;99617.08;1725570;82;21586;-81
2022/04/20 08:00:35;;;;;;;29.12;19.02;;;;;;;8.26;100.00;99625.28;1708322;83;21188;-82
2022/04/20 08:03:58;;;;;;;33.15;18.92;;;;;;;8.18;100.00;99623.44;1595313;90;21378;-84
2022/04/20 08:07:10;;;;;;;29.65;18.52;;;;;;;8.09;100.00;99627.22;1730266;82;21200;-83
2022/04/20 08:10:17;;;;;;;31.15;18.75;;;;;;;7.99;100.00;99632.03;1691522;84;21177;-83
2022/04/20 08:16:48;;;;;;;35.28;18.00;;;;;;;7.79;100.00;99635.17;1704434;82;21563;-85
2022/04/20 08:19:57;;;;;;;39.98;20.52;;;;;;;7.74;100.00;99636.20;1767403;80;21739;-84
2022/04/20 08:23:08;;;;;;;32.08;18.98;;;;;;;7.67;100.00;99636.06;1748387;81;21208;-83
2022/04/20 08:26:08;;;;;;;34.50;21.35;;;;;;;7.64;100.00;99635.05;1750780;81;21149;-84
2022/04/20 08:29:00;;;;;;;38.85;23.25;;;;;;;7.58;100.00;99640.34;1766395;81;21193;-83
2022/04/20 08:31:47;;;;;;;38.73;22.17;;;;;;;7.54;100.00;99638.47;1767243;79;21189;-83
2022/04/20 08:34:42;;;;;;;38.48;21.37;;;;;;;7.58;100.00;99629.45;1764545;81;21142;-83
2022/04/20 08:37:29;;;;;;;34.18;20.27;;;;;;;7.67;100.00;99629.78;1739402;81;21665;-82
2022/04/20 08:40:22;;;;;;;31.35;18.20;;;;;;;7.78;100.00;99628.03;1769395;80;21158;-82
2022/04/20 08:43:29;;;;;;;24.87;15.63;;;;;;;7.90;100.00;99629.37;1770036;79;21178;-82
2022/04/20 08:46:36;;;;;;;11.22;8.83;;;;;;;8.07;100.00;99629.29;1770641;81;21182;-82
2022/04/20 08:49:47;;;;;;;10.82;7.58;;;;;;;8.21;100.00;99631.27;1729201;81;21750;-82
2022/04/20 08:52:46;;;;;;;;;;;;;;;8.33;100.00;99635.30;1747095;81;21193;-82
2022/04/20 08:57:15;;;;;;;9.85;7.50;;;;;;;8.50;100.00;99632.51;1757114;81;20922;-82
2022/04/20 08:59:00;;;;;;;12.65;7.72;;;;;;;8.71;100.00;99631.36;1757823;81;21236;-81
2022/04/20 09:02:07;;;;;;;9.20;7.75;;;;;;;9.02;100.00;99629.08;1744942;81;21255;-81
2022/04/20 09:05:14;;;;;;;8.58;6.35;;;;;;;9.39;100.00;99627.72;1754288;81;21208;-82
2022/04/20 09:08:14;;;;;;;6.47;5.03;;;;;;;9.76;100.00;99624.62;1750643;81;21188;-82
2022/04/20 09:11:08;;;;;;;7.53;5.72;;;;;;;10.13;100.00;99632.39;1759952;80;21169;-77
2022/04/20 09:14:20;;;;;;;6.92;5.30;;;;;;;10.46;100.00;99635.05;1770865;81;21232;-78
2022/04/20 09:17:31;;;;;;;3.83;3.42;;;;;;;10.81;100.00;99627.01;1770389;79;21224;-78
2022/04/20 09:20:36;;;;;;;4.03;3.40;;;;;;;11.15;100.00;99628.17;1771129;81;21134;-77
2022/04/20 09:23:42;;;;;;;2.87;2.58;;;;;;;11.27;100.00;99623.88;1763786;80;22002;-78
2022/04/20 09:27:05;;;;;;;3.72;3.12;;;;;;;11.20;100.00;99631.20;1754836;81;21204;-77
2022/04/20 09:30:18;;;;;;;4.90;3.15;;;;;;;11.00;98.26;99634.56;1749939;81;21706;-78
2022/04/20 09:33:24;;;;;;;10.18;3.37;;;;;;;10.70;95.66;99634.37;1759076;81;21177;-77
2022/04/20 09:36:51;;;;;;;3.87;2.92;;;;;;;10.38;95.26;99630.20;1771190;79;21201;-78
2022/04/20 09:39:56;;;;;;;4.20;2.98;;;;;;;10.10;95.52;99647.26;1745002;81;21170;-77
2022/04/20 09:43:12;;;;;;;4.60;2.70;;;;;;;9.79;95.97;99643.37;1760780;81;21142;-77
2022/04/20 09:49:42;;;;;;;6.83;3.40;;;;;;;9.46;98.03;99646.43;1754595;81;21194;-78
2022/04/20 09:52:55;;;;;;;5.28;3.30;;;;;;;9.42;99.49;99645.10;1746870;81;21193;-77
2022/04/20 09:56:00;;;;;;;5.70;3.52;;;;;;;9.50;100.00;99652.87;1771802;81;21146;-77
2022/04/20 09:59:07;;;;;;;5.58;3.47;;;;;;;9.64;100.00;99656.14;1771152;81;21806;-78
2022/04/20 10:02:07;;;;;;;6.67;3.72;;;;;;;9.87;100.00;99661.53;1770978;79;22102;-78
2022/04/20 10:05:13;;;;;;;9.50;3.87;;;;;;;10.11;100.00;99668.08;1770923;81;21712;-78
2022/04/20 10:08:21;;;;;;;5.25;3.77;;;;;;;10.34;100.00;99665.27;1770376;79;21198;-78
2022/04/20 10:11:28;;;;;;;6.05;3.50;;;;;;;10.59;99.71;99666.34;1769345;81;21236;-78
2022/04/20 10:18:01;;;;;;;4.40;2.62;;;;;;;11.14;96.33;99660.70;1750259;81;21157;-79
2022/04/20 10:21:13;;;;;;;9.73;3.30;;;;;;;11.47;90.55;99659.63;1742214;82;21196;-78
2022/04/20 10:24:19;;;;;;;4.28;2.62;;;;;;;11.70;84.50;99656.13;1742909;82;21180;-77
2022/04/20 10:27:43;;;;;;;6.22;3.27;;;;;;;11.84;82.32;99651.63;1769056;79;21762;-77
2022/04/20 10:31:06;;;;;;;6.97;3.00;;;;;;;11.96;79.39;99647.81;1779285;80;21205;-77
2022/04/20 10:34:12;;;;;;;5.33;3.27;;;;;;;12.12;73.65;99660.34;1760677;80;21157;-78
2022/04/20 10:37:30;;;;;;;8.35;2.90;;;;;;;12.18;67.14;99656.78;1774398;80;21188;-76
2022/04/20 10:41:10;;;;;;;4.75;3.00;;;;;;;12.14;66.16;99659.59;1772972;80;21765;-78
2022/04/20 10:44:18;;;;;;;6.50;3.20;;;;;;;11.85;65.32;99665.64;1779423;80;21193;-78
2022/04/20 10:47:29;;;;;;;7.65;3.15;;;;;;;11.62;67.63;99669.12;1779396;80;21200;-77
2022/04/20 10:50:38;;;;;;;6.12;3.52;;;;;;;11.43;70.06;99677.00;1775289;80;21754;-78
2022/04/20 10:53:43;;;;;;;10.53;3.58;;;;;;;11.14;72.37;99686.18;1752784;80;21197;-77
2022/04/20 10:56:53;;;;;;;6.50;3.40;;;;;;;10.80;74.57;99691.50;1746308;80;21188;-81
2022/04/20 11:00:19;;;;;;;6.72;3.77;;;;;;;10.35;75.51;99695.69;1725298;82;21181;-82
2022/04/20 11:03:25;;;;;;;8.23;4.00;;;;;;;9.96;77.94;99698.66;1776688;80;21117;-81
2022/04/20 11:06:36;;;;;;;11.18;4.65;;;;;;;9.66;80.35;99693.68;1759911;80;21754;-78
2022/04/20 11:09:56;;;;;;;9.35;4.87;;;;;;;9.50;81.75;99692.45;1747374;82;21794;-81
2022/04/20 11:20:58;;;;;;;8.10;4.95;;;;;;;10.08;90.53;99696.32;1772609;80;21188;-81
2022/04/20 11:24:17;;;;;;;6.70;4.47;;;;;;;10.34;89.39;99695.34;1741704;82;21136;-81
2022/04/20 11:27:24;;;;;;;7.22;4.15;;;;;;;10.62;88.51;99698.23;1754317;80;21221;-81
2022/04/20 11:30:28;;;;;;;7.58;3.83;;;;;;;10.93;88.69;99693.87;1778909;80;21209;-81
2022/04/20 11:33:34;;;;;;;8.33;3.52;;;;;;;11.18;87.44;99695.70;1779069;80;21169;-81
2022/04/20 11:36:41;;;;;;;4.72;2.87;;;;;;;11.38;82.32;99705.99;1778819;80;21141;-81
2022/04/20 11:39:46;;;;;;;8.03;2.95;;;;;;;11.41;79.56;99694.14;1777302;80;21293;-81
2022/04/20 11:43:14;;;;;;;4.35;3.02;;;;;;;11.37;76.04;99691.46;1777646;80;21248;-81
2022/04/20 11:46:20;;;;;;;4.78;2.90;;;;;;;11.27;73.44;99685.47;1778956;80;21188;-81
2022/04/20 11:49:26;;;;;;;4.22;2.70;;;;;;;11.18;73.30;99690.75;1776525;80;21212;-81
2022/04/20 11:52:34;;;;;;;6.12;2.85;;;;;;;11.11;73.80;99699.44;1741144;81;21236;-81
2022/04/20 11:55:54;;;;;;;4.87;3.10;;;;;;;11.01;70.23;99694.28;1766631;80;21153;-81
2022/04/20 11:58:59;;;;;;;4.97;2.45;;;;;;;10.80;70.97;99692.87;1778965;80;21792;-81
2022/04/20 12:02:04;;;;;;;11.78;3.40;;;;;;;10.80;73.32;99699.19;1767826;80;21185;-81
2022/04/20 12:05:13;;;;;;;7.80;2.98;;;;;;;10.84;73.31;99684.61;1778538;80;21766;-81
2022/04/20 12:08:20;;;;;;;4.92;2.70;;;;;;;10.90;71.14;99690.66;1776524;80;21200;-81
2022/04/20 12:11:26;;;;;;;4.60;2.80;;;;;;;10.96;71.95;99685.28;1762806;80;21451;-81
2022/04/20 12:14:41;;;;;;;4.87;3.20;;;;;;;11.02;71.16;99697.34;1778496;80;21161;-82
2022/04/20 12:17:44;;;;;;;4.67;3.05;;;;;;;10.96;67.10;99692.12;1777463;80;21181;-81
2022/04/20 12:20:56;;;;;;;6.40;2.98;;;;;;;10.83;68.11;99693.86;1775005;80;21186;-81
2022/04/20 12:24:01;;;;;;;3.90;2.80;;;;;;;10.76;68.99;99699.23;1770155;81;21201;-82
2022/04/20 12:27:06;;;;;;;5.15;3.08;;;;;;;10.65;70.64;99707.42;1769841;81;21197;-81
2022/04/20 12:30:14;;;;;;;4.95;3.30;;;;;;;10.59;71.35;99699.16;1768448;81;21696;-81
2022/04/20 12:33:32;;;;;;;6.90;3.27;;;;;;;10.55;70.12;99708.25;1769533;81;21797;-81
2022/04/20 12:37:08;;;;;;;4.85;2.87;;;;;;;10.47;70.99;99701.52;1770553;81;21177;-81
2022/04/20 12:40:29;;;;;;;5.75;3.35;;;;;;;10.35;69.81;99707.99;1769163;80;21205;-82
2022/04/20 12:43:42;;;;;;;5.55;3.12;;;;;;;10.21;70.22;99704.72;1769406;81;21213;-82
2022/04/20 12:46:48;;;;;;;7.25;3.77;;;;;;;10.03;71.03;99717.38;1770228;79;22147;-81
2022/04/20 12:50:10;;;;;;;9.10;3.98;;;;;;;9.83;72.90;99717.56;1769072;81;21707;-81
2022/04/20 12:53:16;;;;;;;6.67;3.87;;;;;;;9.61;73.33;99717.97;1769717;81;21193;-83
2022/04/20 13:03:23;;;;;;;9.73;2.75;;;;;;;9.70;73.54;99710.03;1770744;81;21158;-82
2022/04/20 13:06:28;;;;;;;8.93;2.67;;;;;;;9.89;72.30;99710.86;1771867;81;21147;-82
2022/04/20 13:09:35;;;;;;;4.22;2.85;;;;;;;10.12;72.61;99710.79;1770506;80;21149;-81
2022/04/20 13:12:43;;;;;;;3.72;2.65;;;;;;;10.33;73.07;99710.05;1771233;81;21189;-82
2022/04/20 13:15:52;;;;;;;5.25;2.62;;;;;;;10.41;72.70;99711.33;1770492;80;21189;-81
2022/04/20 13:18:59;;;;;;;4.12;3.00;;;;;;;10.40;73.40;99707.42;1771271;81;21231;-81
2022/04/20 13:22:05;;;;;;;4.70;3.02;;;;;;;10.34;73.31;99704.91;1770968;79;21766;-81
2022/04/20 13:28:36;;;;;;;2.72;2.40;;;;;;;10.26;74.68;99710.49;1770512;81;21224;-82
2022/04/20 13:31:47;;;;;;;4.70;2.60;;;;;;;10.24;75.04;99707.08;1772056;81;21181;-80
2022/04/20 13:34:54;;;;;;;6.17;2.95;;;;;;;10.24;72.59;99712.55;1772291;81;21138;-80
2022/04/20 13:38:00;;;;;;;5.62;3.12;;;;;;;10.19;70.54;99723.17;1770246;80;21814;-81
2022/04/20 13:41:07;;;;;;;6.55;3.60;;;;;;;10.11;72.29;99721.89;1771755;81;21225;-81
2022/04/20 13:44:13;;;;;;;6.80;3.10;;;;;;;10.05;71.68;99730.32;1770236;81;21217;-81
2022/04/20 13:47:19;;;;;;;7.75;3.67;;;;;;;10.06;72.42;99728.44;1771917;81;21165;-81
2022/04/20 13:50:19;;;;;;;9.50;3.15;;;;;;;9.98;71.69;99737.06;1771606;80;21213;-79
2022/04/20 13:53:13;;;;;;;4.17;3.55;;;;;;;9.80;70.75;99739.81;1771334;81;21173;-81
2022/04/20 13:56:20;;;;;;;4.42;3.17;;;;;;;9.66;73.38;99751.03;1737083;82;21187;-80
2022/04/20 13:59:27;;;;;;;6.35;3.40;;;;;;;9.63;74.86;99748.66;1770693;80;21165;-81
2022/04/20 14:02:33;;;;;;;6.50;3.50;;;;;;;9.58;75.41;99752.45;1771270;81;21209;-81
2022/04/20 14:05:39;;;;;;;6.30;3.55;;;;;;;9.46;74.93;99755.63;1771927;81;21157;-81
2022/04/20 14:08:45;;;;;;;6.28;3.70;;;;;;;9.33;75.82;99769.55;1770455;81;21732;-81
2022/04/20 14:11:51;;;;;;;6.17;2.50;;;;;;;9.15;76.40;99765.73;1771690;81;21216;-82
2022/04/20 14:14:59;;;;;;;4.80;2.98;;;;;;;9.08;77.16;99771.08;1770580;81;21763;-81
2022/04/20 14:18:06;;;;;;;6.92;3.67;;;;;;;9.11;77.12;99773.94;1770989;81;21197;-82
2022/04/20 14:21:13;;;;;;;5.00;3.70;;;;;;;9.14;76.68;99772.23;1770567;80;21146;-78
2022/04/20 14:24:19;;;;;;;9.20;4.10;;;;;;;9.10;76.74;99762.19;1753654;79;21225;-77
2022/04/20 14:34:16;;;;;;;6.33;3.45;;;;;;;9.01;77.24;99781.51;1772195;81;21233;-81
2022/04/20 14:37:23;;;;;;;5.85;3.27;;;;;;;8.92;79.71;99784.27;1770333;81;21750;-82
2022/04/20 14:40:29;;;;;;;6.72;2.85;;;;;;;8.86;80.93;99788.23;1771115;81;21177;-81
2022/04/20 14:43:30;;;;;;;6.22;3.20;;;;;;;8.76;81.35;99783.52;1770475;81;21770;-81
2022/04/20 14:46:35;;;;;;;5.40;3.25;;;;;;;8.64;81.83;99788.50;1771486;81;21154;-82
2022/04/20 14:49:43;;;;;;;7.08;2.87;;;;;;;8.52;82.00;99788.56;1771688;81;21201;-81
2022/04/20 14:52:49;;;;;;;6.53;3.22;;;;;;;8.41;81.82;99787.89;1750475;81;21196;-81
2022/04/20 14:55:57;;;;;;;4.30;3.10;;;;;;;8.34;81.66;99795.05;1749947;80;21180;-81
2022/04/20 14:59:02;;;;;;;6.20;3.17;;;;;;;8.30;81.54;99786.03;1752368;81;21154;-81
2022/04/20 15:02:12;;;;;;;3.60;2.30;;;;;;;8.24;81.83;99790.82;1759898;81;21177;-82
2022/04/20 15:05:17;;;;;;;;;;;;;;;8.22;82.89;99797.78;1773507;81;21167;-81
2022/04/20 15:08:24;;;;;;;3.33;2.60;;;;;;;8.19;83.17;99788.62;1770632;79;20214;-78
2022/04/20 15:11:31;;;;;;;3.10;2.42;;;;;;;8.14;81.25;99793.23;1765740;81;21817;-78
2022/04/20 15:14:39;;;;;;;4.87;2.80;;;;;;;8.07;81.30;99795.44;1760785;80;21746;-78
2022/04/20 15:17:46;;;;;;;4.15;2.90;;;;;;;8.02;81.39;99803.28;1771222;79;21252;-81
2022/04/20 15:20:53;;;;;;;4.47;2.70;;;;;;;7.94;81.52;99804.97;1770138;81;21150;-81
2022/04/20 15:23:59;;;;;;;5.75;2.72;;;;;;;7.84;80.91;99815.20;1771003;80;21755;-79